createdAt,value
2019-03-31T00:01:07.505Z,35.11
2019-03-31T00:02:01.305Z,35.02
2019-03-31T00:03:03.859Z,33.05
2019-03-31T00:04:05.691Z,34.31
2019-03-31T00:05:09.247Z,34.44
2019-03-31T00:06:11.456Z,33.55
2019-03-31T00:07:15.719Z,33.49
2019-03-31T00:08:17.946Z,34.27
2019-03-31T00:09:19.871Z,33.69
2019-03-31T00:10:21.987Z,34.86
2019-03-31T00:11:24.207Z,34.80
2019-03-31T00:12:26.170Z,35.26
2019-03-31T00:13:28.467Z,34.10
2019-03-31T00:14:30.597Z,35.63
2019-03-31T00:15:32.896Z,34.83
2019-03-31T00:16:37.024Z,34.84
2019-03-31T00:17:40.383Z,34.18
2019-03-31T00:18:42.314Z,33.87
2019-03-31T00:19:44.241Z,33.62
2019-03-31T00:20:47.057Z,32.95
2019-03-31T00:21:50.647Z,32.96
2019-03-31T00:22:52.666Z,33.95
2019-03-31T00:23:55.173Z,33.23
2019-03-31T00:24:56.859Z,33.73
2019-03-31T00:25:59.034Z,34.29
2019-03-31T00:27:01.371Z,33.45
2019-03-31T00:28:03.608Z,35.14
2019-03-31T00:29:06.276Z,33.37
2019-03-31T00:30:08.600Z,34.79
2019-03-31T00:31:21.450Z,34.47
2019-03-31T00:32:14.714Z,34.43
2019-03-31T00:33:16.631Z,33.96
2019-03-31T00:34:18.689Z,33.95
2019-03-31T00:35:21.087Z,34.52
2019-03-31T00:36:23.154Z,34.63
2019-03-31T00:37:25.360Z,35.08
2019-03-31T00:38:27.458Z,34.19
2019-03-31T00:39:29.356Z,34.76
2019-03-31T00:40:31.650Z,33.65
2019-03-31T00:41:34.061Z,34.47
2019-03-31T00:42:36.186Z,34.49
2019-03-31T00:43:38.373Z,35.33
2019-03-31T00:44:40.462Z,34.59
2019-03-31T00:45:42.532Z,34.33
2019-03-31T00:46:44.906Z,35.04
2019-03-31T00:47:47.288Z,34.35
2019-03-31T00:48:48.979Z,33.81
2019-03-31T00:49:51.090Z,34.01
2019-03-31T00:50:53.382Z,35.01
2019-03-31T00:51:55.519Z,34.78
2019-03-31T00:52:57.783Z,34.64
2019-03-31T00:53:59.797Z,34.36
2019-03-31T00:55:03.471Z,34.86
2019-03-31T00:56:05.605Z,34.02
2019-03-31T00:57:07.999Z,34.56
2019-03-31T00:58:10.180Z,35.06
2019-03-31T00:59:12.693Z,34.43
2019-03-31T01:00:35.961Z,35.33
2019-03-31T01:01:41.957Z,35.56
2019-03-31T01:02:44.505Z,33.16
2019-03-31T01:03:46.958Z,34.39
2019-03-31T01:04:49.471Z,32.92
2019-03-31T01:05:51.579Z,32.74
2019-03-31T01:06:53.742Z,33.69
2019-03-31T01:07:56.168Z,33.58
2019-03-31T01:09:00.298Z,33.74
2019-03-31T01:10:03.411Z,34.35
2019-03-31T01:11:13.464Z,34.37
2019-03-31T01:12:16.489Z,33.67
2019-03-31T01:13:18.935Z,34.37
2019-03-31T01:14:21.923Z,34.15
2019-03-31T01:15:25.898Z,33.95
2019-03-31T01:16:29.512Z,34.79
2019-03-31T01:17:31.996Z,33.48
2019-03-31T01:18:34.547Z,35.09
2019-03-31T01:19:36.868Z,33.78
2019-03-31T01:20:39.134Z,34.97
2019-03-31T01:21:40.935Z,34.15
2019-03-31T01:22:43.066Z,33.05
2019-03-31T01:23:45.862Z,33.44
2019-03-31T01:24:47.548Z,34.26
2019-03-31T01:25:49.999Z,34.71
2019-03-31T01:26:53.526Z,34.24
2019-03-31T01:27:55.636Z,34.20
2019-03-31T01:28:58.802Z,34.25
2019-03-31T01:30:00.926Z,35.49
2019-03-31T01:31:03.858Z,33.55
2019-03-31T01:32:06.128Z,35.37
2019-03-31T01:33:08.794Z,36.03
2019-03-31T01:34:13.022Z,35.96
2019-03-31T01:35:15.812Z,36.10
2019-03-31T01:36:18.164Z,33.21
2019-03-31T01:37:21.186Z,35.86
2019-03-31T01:38:23.536Z,35.37
2019-03-31T01:39:26.438Z,34.42
2019-03-31T01:40:28.480Z,35.58
2019-03-31T01:41:31.060Z,35.28
2019-03-31T01:42:33.249Z,34.52
2019-03-31T01:43:35.775Z,35.66
2019-03-31T01:44:38.181Z,34.45
2019-03-31T01:45:40.599Z,35.76
2019-03-31T01:46:43.013Z,34.41
2019-03-31T01:47:45.342Z,34.75
2019-03-31T01:48:47.403Z,35.04
2019-03-31T01:49:49.726Z,34.12
2019-03-31T01:50:51.953Z,34.44
2019-03-31T01:51:54.579Z,34.17
2019-03-31T01:52:56.705Z,34.35
2019-03-31T01:53:58.985Z,34.10
2019-03-31T01:55:01.027Z,34.31
2019-03-31T01:56:03.396Z,33.25
2019-03-31T01:57:06.833Z,33.34
2019-03-31T01:58:08.726Z,33.55
2019-03-31T01:59:10.899Z,33.37
2019-03-31T02:00:21.187Z,34.34
2019-03-31T02:01:23.381Z,33.39
2019-03-31T02:02:27.220Z,33.15
2019-03-31T02:03:29.366Z,34.09
2019-03-31T02:04:31.449Z,33.64
2019-03-31T02:05:33.969Z,34.10
2019-03-31T02:06:36.178Z,33.87
2019-03-31T02:07:38.416Z,33.70
2019-03-31T02:08:41.556Z,33.82
2019-03-31T02:09:44.873Z,33.04
2019-03-31T02:10:47.005Z,33.33
2019-03-31T02:11:49.037Z,33.03
2019-03-31T02:12:51.008Z,33.88
2019-03-31T02:13:53.228Z,34.37
2019-03-31T02:14:55.431Z,33.82
2019-03-31T02:15:57.809Z,33.72
2019-03-31T02:16:59.978Z,33.33
2019-03-31T02:18:02.262Z,33.36
2019-03-31T02:19:04.104Z,33.54
2019-03-31T02:20:08.018Z,34.64
2019-03-31T02:21:09.846Z,34.10
2019-03-31T02:22:11.676Z,33.82
2019-03-31T02:23:13.984Z,33.21
2019-03-31T02:24:17.255Z,33.08
2019-03-31T02:25:19.778Z,33.04
2019-03-31T02:26:21.931Z,33.05
2019-03-31T02:27:24.422Z,33.84
2019-03-31T02:28:26.172Z,33.37
2019-03-31T02:29:28.302Z,32.35
2019-03-31T02:30:30.574Z,33.96
2019-03-31T02:31:32.410Z,33.01
2019-03-31T02:32:34.653Z,33.71
2019-03-31T02:33:36.328Z,32.58
2019-03-31T02:34:38.287Z,33.17
2019-03-31T02:35:40.706Z,33.75
2019-03-31T02:36:42.378Z,33.16
2019-03-31T02:37:44.380Z,33.45
2019-03-31T02:38:46.814Z,33.02
2019-03-31T02:39:48.485Z,33.72
2019-03-31T02:40:50.791Z,32.98
2019-03-31T02:41:52.984Z,32.98
2019-03-31T02:42:54.823Z,32.33
2019-03-31T02:43:57.126Z,32.83
2019-03-31T02:44:59.361Z,32.28
2019-03-31T02:46:01.422Z,33.80
2019-03-31T02:47:03.791Z,32.22
2019-03-31T02:48:06.019Z,34.72
2019-03-31T02:49:08.092Z,32.42
2019-03-31T02:50:24.855Z,33.10
2019-03-31T02:51:27.119Z,33.15
2019-03-31T02:52:29.508Z,33.43
2019-03-31T02:53:31.759Z,32.82
2019-03-31T02:54:33.924Z,33.52
2019-03-31T02:55:37.123Z,33.77
2019-03-31T02:56:40.324Z,34.34
2019-03-31T02:57:42.507Z,33.06
2019-03-31T02:58:45.540Z,34.91
2019-03-31T02:59:49.440Z,32.65
2019-03-31T03:00:52.506Z,33.80
2019-03-31T03:01:56.820Z,33.79
2019-03-31T03:02:59.547Z,33.44
2019-03-31T03:04:02.356Z,32.89
2019-03-31T03:05:18.782Z,33.18
2019-03-31T03:06:10.939Z,32.91
2019-03-31T03:07:15.328Z,34.25
2019-03-31T03:08:17.893Z,32.30
2019-03-31T03:09:22.220Z,33.65
2019-03-31T03:10:26.234Z,33.82
2019-03-31T03:11:31.118Z,33.25
2019-03-31T03:12:34.476Z,33.13
2019-03-31T03:13:39.442Z,32.23
2019-03-31T03:14:42.338Z,34.27
2019-03-31T03:16:08.364Z,32.15
2019-03-31T03:17:10.346Z,33.07
2019-03-31T03:18:12.475Z,32.07
2019-03-31T03:19:14.933Z,32.69
2019-03-31T03:20:16.966Z,33.07
2019-03-31T03:21:23.426Z,32.89
2019-03-31T03:22:23.151Z,33.42
2019-03-31T03:23:25.289Z,32.24
2019-03-31T03:24:27.966Z,32.41
2019-03-31T03:25:29.634Z,32.56
2019-03-31T03:26:31.827Z,32.74
2019-03-31T03:27:33.603Z,33.09
2019-03-31T03:28:35.502Z,34.00
2019-03-31T03:29:37.979Z,32.23
2019-03-31T03:30:40.329Z,34.72
2019-03-31T03:31:42.536Z,32.68
2019-03-31T03:33:12.069Z,34.60
2019-03-31T03:33:48.744Z,35.40
2019-03-31T03:34:50.898Z,33.51
2019-03-31T03:35:53.158Z,33.23
2019-03-31T03:36:55.008Z,33.65
2019-03-31T03:37:59.504Z,33.76
2019-03-31T03:39:01.666Z,32.87
2019-03-31T03:40:06.141Z,33.12
2019-03-31T03:41:08.413Z,32.89
2019-03-31T03:42:10.641Z,33.98
2019-03-31T03:43:12.303Z,33.60
2019-03-31T03:44:14.489Z,32.88
2019-03-31T03:45:16.860Z,33.27
2019-03-31T03:46:18.547Z,33.11
2019-03-31T03:47:20.878Z,32.21
2019-03-31T03:48:22.686Z,32.97
2019-03-31T03:49:24.764Z,32.16
2019-03-31T03:50:26.842Z,32.75
2019-03-31T03:51:28.526Z,32.04
2019-03-31T03:52:30.701Z,32.47
2019-03-31T03:53:33.251Z,32.18
2019-03-31T03:54:35.682Z,32.18
2019-03-31T03:55:38.046Z,32.41
2019-03-31T03:56:40.005Z,32.02
2019-03-31T03:57:42.133Z,32.23
2019-03-31T03:58:44.747Z,32.37
2019-03-31T03:59:46.813Z,32.05
2019-03-31T04:00:49.107Z,32.31
2019-03-31T04:01:51.259Z,31.94
2019-03-31T04:02:54.905Z,31.87
2019-03-31T04:03:56.601Z,31.77
2019-03-31T04:04:58.760Z,33.25
2019-03-31T04:06:00.714Z,31.59
2019-03-31T04:07:02.965Z,31.90
2019-03-31T04:08:05.184Z,33.70
2019-03-31T04:09:07.460Z,32.52
2019-03-31T04:10:44.357Z,31.82
2019-03-31T04:11:46.601Z,32.88
2019-03-31T04:12:48.480Z,32.48
2019-03-31T04:13:50.977Z,31.86
2019-03-31T04:14:53.235Z,32.26
2019-03-31T04:15:56.182Z,32.17
2019-03-31T04:16:58.765Z,32.60
2019-03-31T04:18:00.913Z,32.33
2019-03-31T04:19:02.911Z,31.89
2019-03-31T04:20:05.306Z,31.96
2019-03-31T04:21:07.914Z,32.14
2019-03-31T04:22:09.623Z,31.81
2019-03-31T04:23:12.738Z,31.87
2019-03-31T04:24:15.016Z,31.89
2019-03-31T04:25:16.927Z,31.94
2019-03-31T04:26:19.037Z,31.70
2019-03-31T04:27:20.689Z,31.94
2019-03-31T04:28:22.446Z,32.49
2019-03-31T04:29:24.662Z,32.58
2019-03-31T04:30:27.116Z,32.19
2019-03-31T04:31:29.315Z,32.27
2019-03-31T04:32:31.636Z,31.90
2019-03-31T04:33:49.650Z,31.71
2019-03-31T04:34:37.645Z,31.24
2019-03-31T04:35:39.769Z,31.93
2019-03-31T04:36:41.972Z,31.73
2019-03-31T04:37:44.082Z,32.02
2019-03-31T04:38:46.288Z,32.48
2019-03-31T04:39:48.385Z,31.58
2019-03-31T04:40:52.535Z,31.69
2019-03-31T04:41:54.686Z,31.94
2019-03-31T04:42:56.723Z,31.64
2019-03-31T04:43:58.833Z,31.73
2019-03-31T04:45:00.993Z,31.40
2019-03-31T04:46:03.372Z,31.29
2019-03-31T04:47:05.402Z,31.30
2019-03-31T04:48:07.060Z,31.83
2019-03-31T04:49:09.242Z,32.05
2019-03-31T04:50:11.843Z,32.19
2019-03-31T04:51:14.454Z,31.99
2019-03-31T04:52:16.092Z,32.65
2019-03-31T04:53:18.656Z,32.28
2019-03-31T04:54:21.068Z,32.27
2019-03-31T04:55:23.255Z,32.92
2019-03-31T04:56:25.270Z,32.63
2019-03-31T04:57:27.415Z,32.33
2019-03-31T04:58:29.804Z,32.05
2019-03-31T04:59:32.034Z,32.44
2019-03-31T05:00:36.220Z,32.52
2019-03-31T05:01:38.300Z,32.49
2019-03-31T05:02:40.626Z,32.38
2019-03-31T05:03:42.644Z,32.86
2019-03-31T05:04:44.787Z,32.83
2019-03-31T05:05:48.127Z,32.56
2019-03-31T05:06:49.801Z,31.98
2019-03-31T05:07:52.042Z,32.32
2019-03-31T05:08:54.036Z,32.23
2019-03-31T05:09:55.742Z,32.19
2019-03-31T05:10:58.125Z,32.49
2019-03-31T05:12:00.113Z,32.29
2019-03-31T05:13:02.203Z,31.95
2019-03-31T05:14:04.527Z,31.71
2019-03-31T05:15:06.855Z,31.77
2019-03-31T05:16:08.695Z,32.35
2019-03-31T05:17:10.777Z,32.02
2019-03-31T05:18:13.200Z,32.11
2019-03-31T05:19:16.362Z,32.32
2019-03-31T05:20:18.517Z,32.14
2019-03-31T05:21:20.870Z,32.32
2019-03-31T05:22:22.852Z,32.63
2019-03-31T05:23:25.525Z,32.07
2019-03-31T05:24:27.310Z,32.55
2019-03-31T05:25:29.322Z,32.56
2019-03-31T05:26:31.441Z,32.59
2019-03-31T05:27:33.177Z,32.84
2019-03-31T05:28:35.030Z,32.21
2019-03-31T05:29:37.266Z,33.04
2019-03-31T05:30:39.409Z,32.88
2019-03-31T05:31:41.092Z,32.57
2019-03-31T05:32:44.187Z,33.04
2019-03-31T05:33:46.413Z,33.11
2019-03-31T05:34:48.703Z,33.24
2019-03-31T05:35:51.969Z,33.41
2019-03-31T05:36:54.061Z,33.83
2019-03-31T05:37:56.319Z,33.72
2019-03-31T05:38:58.345Z,33.73
2019-03-31T05:40:00.499Z,33.61
2019-03-31T05:41:02.848Z,32.58
2019-03-31T05:42:04.791Z,32.55
2019-03-31T05:43:06.616Z,32.64
2019-03-31T05:44:08.678Z,32.83
2019-03-31T05:45:10.948Z,33.71
2019-03-31T05:46:13.033Z,33.53
2019-03-31T05:47:15.024Z,34.58
2019-03-31T05:48:16.796Z,34.39
2019-03-31T05:49:18.774Z,33.84
2019-03-31T05:50:20.867Z,34.04
2019-03-31T05:51:22.908Z,34.08
2019-03-31T05:52:24.932Z,34.79
2019-03-31T05:53:26.890Z,34.88
2019-03-31T05:54:28.995Z,34.81
2019-03-31T05:55:31.260Z,34.80
2019-03-31T05:56:33.386Z,34.94
2019-03-31T05:57:35.371Z,34.70
2019-03-31T05:58:37.236Z,35.38
2019-03-31T05:59:39.262Z,36.20
2019-03-31T06:00:43.097Z,35.78
2019-03-31T06:01:45.450Z,36.12
2019-03-31T06:02:47.683Z,37.05
2019-03-31T06:03:49.390Z,37.26
2019-03-31T06:04:51.773Z,37.34
2019-03-31T06:05:54.029Z,36.64
2019-03-31T06:06:57.862Z,38.40
2019-03-31T06:08:01.406Z,37.04
2019-03-31T06:09:05.296Z,35.46
2019-03-31T06:10:07.335Z,36.82
2019-03-31T06:11:09.523Z,36.56
2019-03-31T06:12:11.732Z,35.62
2019-03-31T06:13:13.725Z,35.80
2019-03-31T06:14:15.868Z,36.18
2019-03-31T06:15:18.245Z,35.73
2019-03-31T06:16:20.124Z,35.49
2019-03-31T06:17:22.123Z,34.55
2019-03-31T06:18:23.948Z,34.49
2019-03-31T06:19:26.034Z,33.67
2019-03-31T06:20:28.356Z,34.98
2019-03-31T06:21:30.419Z,34.88
2019-03-31T06:22:32.567Z,35.41
2019-03-31T06:23:35.135Z,34.97
2019-03-31T06:24:37.091Z,34.11
2019-03-31T06:25:39.367Z,34.85
2019-03-31T06:26:42.714Z,33.81
2019-03-31T06:27:47.013Z,33.87
2019-03-31T06:28:49.180Z,33.58
2019-03-31T06:29:51.285Z,33.57
2019-03-31T06:30:53.051Z,34.37
2019-03-31T06:31:55.062Z,34.12
2019-03-31T06:32:57.357Z,34.56
2019-03-31T06:33:59.327Z,33.68
2019-03-31T06:35:01.709Z,34.90
2019-03-31T06:36:03.988Z,34.34
2019-03-31T06:37:06.348Z,35.16
2019-03-31T06:38:09.015Z,33.40
2019-03-31T06:39:10.742Z,34.79
2019-03-31T06:40:13.065Z,33.31
2019-03-31T06:41:15.246Z,33.02
2019-03-31T06:42:17.287Z,33.39
2019-03-31T06:43:18.956Z,32.92
2019-03-31T06:44:22.253Z,32.83
2019-03-31T06:45:24.411Z,32.82
2019-03-31T06:46:26.394Z,33.58
2019-03-31T06:47:28.452Z,33.31
2019-03-31T06:48:30.860Z,33.04
2019-03-31T06:49:33.206Z,33.21
2019-03-31T06:50:35.830Z,33.84
2019-03-31T06:51:38.068Z,32.97
2019-03-31T06:52:40.017Z,32.84
2019-03-31T06:53:41.995Z,32.65
2019-03-31T06:54:43.942Z,33.02
2019-03-31T06:55:45.947Z,32.90
2019-03-31T06:56:48.074Z,32.82
2019-03-31T06:57:51.118Z,32.75
2019-03-31T06:58:53.114Z,33.00
2019-03-31T06:59:55.208Z,33.83
2019-03-31T07:00:57.396Z,32.82
2019-03-31T07:02:02.848Z,33.12
2019-03-31T07:03:04.059Z,32.91
2019-03-31T07:04:07.686Z,33.52
2019-03-31T07:05:10.213Z,33.01
2019-03-31T07:06:12.764Z,33.10
2019-03-31T07:07:15.123Z,33.00
2019-03-31T07:08:17.514Z,32.79
2019-03-31T07:09:19.679Z,34.49
2019-03-31T07:10:22.116Z,33.04
2019-03-31T07:11:24.120Z,33.01
2019-03-31T07:12:26.323Z,32.99
2019-03-31T07:13:28.334Z,33.02
2019-03-31T07:14:30.363Z,32.98
2019-03-31T07:15:32.449Z,32.98
2019-03-31T07:16:34.675Z,32.91
2019-03-31T07:17:37.123Z,32.88
2019-03-31T07:18:39.251Z,33.02
2019-03-31T07:19:41.502Z,33.00
2019-03-31T07:20:43.504Z,33.21
2019-03-31T07:21:45.420Z,33.34
2019-03-31T07:22:47.753Z,33.37
2019-03-31T07:23:49.879Z,33.32
2019-03-31T07:24:51.717Z,33.42
2019-03-31T07:25:53.996Z,33.55
2019-03-31T07:26:56.154Z,33.59
2019-03-31T07:27:58.447Z,33.68
2019-03-31T07:29:00.483Z,33.51
2019-03-31T07:30:07.244Z,33.67
2019-03-31T07:31:09.100Z,33.39
2019-03-31T07:32:11.475Z,33.34
2019-03-31T07:33:13.546Z,34.24
2019-03-31T07:34:15.742Z,34.51
2019-03-31T07:35:19.128Z,33.52
2019-03-31T07:36:21.430Z,34.41
2019-03-31T07:37:23.532Z,33.81
2019-03-31T07:38:38.244Z,33.63
2019-03-31T07:39:29.657Z,35.03
2019-03-31T07:40:32.174Z,34.91
2019-03-31T07:41:35.456Z,34.54
2019-03-31T07:42:37.642Z,34.60
2019-03-31T07:43:39.916Z,34.91
2019-03-31T07:44:42.009Z,34.69
2019-03-31T07:45:43.845Z,33.61
2019-03-31T07:46:45.994Z,33.46
2019-03-31T07:47:49.116Z,33.65
2019-03-31T07:48:50.780Z,33.76
2019-03-31T07:49:52.892Z,33.52
2019-03-31T07:50:54.954Z,33.51
2019-03-31T07:51:56.702Z,33.43
2019-03-31T07:52:58.990Z,34.10
2019-03-31T07:54:01.110Z,34.92
2019-03-31T07:55:05.180Z,34.37
2019-03-31T07:56:07.224Z,33.51
2019-03-31T07:57:09.509Z,33.95
2019-03-31T07:58:11.276Z,33.42
2019-03-31T07:59:13.444Z,34.09
2019-03-31T08:00:21.157Z,33.55
2019-03-31T08:01:23.953Z,33.24
2019-03-31T08:02:26.094Z,33.37
2019-03-31T08:03:27.998Z,33.15
2019-03-31T08:04:29.807Z,34.05
2019-03-31T08:05:34.033Z,34.18
2019-03-31T08:06:36.289Z,33.36
2019-03-31T08:07:38.871Z,33.71
2019-03-31T08:08:41.017Z,33.46
2019-03-31T08:09:42.681Z,33.05
2019-03-31T08:10:45.043Z,32.97
2019-03-31T08:11:47.313Z,33.00
2019-03-31T08:12:51.194Z,32.86
2019-03-31T08:14:57.175Z,33.82
2019-03-31T08:15:59.509Z,34.85
2019-03-31T08:17:01.593Z,33.11
2019-03-31T08:18:03.689Z,32.78
2019-03-31T08:19:05.531Z,33.07
2019-03-31T08:20:12.000Z,33.73
2019-03-31T08:21:15.316Z,33.51
2019-03-31T08:22:16.993Z,34.33
2019-03-31T08:23:19.357Z,34.49
2019-03-31T08:24:21.271Z,33.44
2019-03-31T08:25:23.570Z,32.48
2019-03-31T08:26:25.560Z,32.20
2019-03-31T08:27:27.641Z,32.50
2019-03-31T08:28:29.677Z,32.41
2019-03-31T08:29:31.887Z,32.30
2019-03-31T08:30:33.970Z,32.29
2019-03-31T08:31:36.140Z,32.14
2019-03-31T08:32:39.101Z,32.13
2019-03-31T08:33:41.093Z,32.23
2019-03-31T08:34:43.136Z,31.95
2019-03-31T08:35:47.615Z,32.46
2019-03-31T08:36:49.118Z,32.43
2019-03-31T08:37:51.253Z,32.18
2019-03-31T08:38:55.352Z,32.42
2019-03-31T08:39:57.053Z,32.35
2019-03-31T08:40:59.438Z,32.24
2019-03-31T08:42:01.656Z,31.97
2019-03-31T08:43:03.349Z,32.08
2019-03-31T08:44:05.800Z,32.18
2019-03-31T08:45:08.506Z,32.12
2019-03-31T08:46:10.858Z,32.20
2019-03-31T08:47:13.070Z,32.38
2019-03-31T08:48:14.746Z,32.49
2019-03-31T08:49:18.948Z,32.64
2019-03-31T08:50:21.191Z,32.51
2019-03-31T08:51:23.480Z,32.25
2019-03-31T08:52:25.590Z,32.73
2019-03-31T08:53:28.017Z,32.89
2019-03-31T08:54:29.850Z,32.73
2019-03-31T08:55:32.208Z,32.34
2019-03-31T08:56:34.221Z,32.61
2019-03-31T08:57:36.433Z,34.20
2019-03-31T08:58:38.908Z,33.05
2019-03-31T08:59:40.997Z,32.66
2019-03-31T09:00:49.626Z,32.22
2019-03-31T09:01:52.148Z,31.90
2019-03-31T09:02:54.172Z,32.23
2019-03-31T09:03:55.951Z,32.39
2019-03-31T09:04:58.283Z,32.19
2019-03-31T09:06:02.406Z,32.52
2019-03-31T09:07:04.925Z,33.64
2019-03-31T09:08:07.308Z,34.39
2019-03-31T09:09:09.769Z,33.33
2019-03-31T09:10:12.133Z,34.30
2019-03-31T09:11:14.228Z,33.81
2019-03-31T09:12:16.547Z,32.49
2019-03-31T09:13:18.420Z,32.23
2019-03-31T09:14:20.821Z,31.74
2019-03-31T09:15:22.683Z,31.70
2019-03-31T09:16:25.210Z,32.03
2019-03-31T09:17:27.421Z,31.62
2019-03-31T09:18:29.535Z,31.99
2019-03-31T09:19:31.736Z,31.90
2019-03-31T09:20:33.917Z,34.18
2019-03-31T09:21:35.743Z,32.30
2019-03-31T09:22:37.954Z,31.57
2019-03-31T09:23:40.073Z,31.08
2019-03-31T09:24:42.172Z,31.40
2019-03-31T09:25:47.519Z,30.86
2019-03-31T09:26:48.786Z,31.53
2019-03-31T09:27:52.544Z,31.67
2019-03-31T09:28:54.900Z,31.40
2019-03-31T09:29:56.973Z,31.04
2019-03-31T09:31:00.618Z,30.61
2019-03-31T09:32:03.007Z,30.36
2019-03-31T09:33:05.424Z,30.60
2019-03-31T09:34:07.576Z,30.69
2019-03-31T09:35:10.254Z,31.08
2019-03-31T09:36:16.525Z,30.63
2019-03-31T09:37:16.352Z,30.91
2019-03-31T09:38:18.489Z,30.88
2019-03-31T09:39:20.552Z,30.72
2019-03-31T09:40:23.311Z,31.13
2019-03-31T09:41:26.804Z,30.87
2019-03-31T09:42:29.084Z,30.87
2019-03-31T09:43:31.147Z,29.33
2019-03-31T09:44:33.228Z,28.46
2019-03-31T09:45:35.533Z,28.48
2019-03-31T09:46:38.004Z,28.90
2019-03-31T09:47:40.441Z,28.82
2019-03-31T09:48:42.426Z,28.45
2019-03-31T09:49:44.491Z,28.64
2019-03-31T09:50:46.901Z,28.93
2019-03-31T09:51:48.869Z,29.14
2019-03-31T09:52:51.086Z,29.41
2019-03-31T09:53:53.198Z,29.94
2019-03-31T09:54:56.861Z,29.81
2019-03-31T09:55:59.259Z,29.26
2019-03-31T09:57:01.513Z,29.33
2019-03-31T09:58:03.690Z,30.22
2019-03-31T09:59:06.012Z,28.67
2019-03-31T10:00:12.331Z,28.39
2019-03-31T10:01:14.637Z,28.69
2019-03-31T10:02:17.053Z,32.61
2019-03-31T10:03:21.235Z,32.98
2019-03-31T10:04:23.033Z,31.75
2019-03-31T10:05:25.305Z,29.68
2019-03-31T10:06:30.721Z,31.10
2019-03-31T10:07:33.389Z,32.84
2019-03-31T10:08:36.171Z,33.04
2019-03-31T10:09:39.998Z,31.90
2019-03-31T10:10:42.262Z,33.42
2019-03-31T10:11:44.586Z,33.45
2019-03-31T10:12:46.837Z,32.48
2019-03-31T10:13:48.867Z,29.58
2019-03-31T10:14:54.399Z,29.01
2019-03-31T10:15:56.246Z,27.77
2019-03-31T10:16:58.544Z,27.35
2019-03-31T10:18:01.260Z,27.04
2019-03-31T10:19:03.800Z,27.42
2019-03-31T10:20:07.028Z,28.43
2019-03-31T10:21:09.069Z,27.65
2019-03-31T10:22:11.489Z,27.63
2019-03-31T10:23:14.518Z,27.52
2019-03-31T10:24:16.741Z,27.66
2019-03-31T10:25:19.114Z,27.50
2019-03-31T10:26:31.809Z,28.13
2019-03-31T10:27:25.300Z,29.22
2019-03-31T10:28:27.550Z,29.82
2019-03-31T10:29:29.784Z,29.20
2019-03-31T10:30:37.490Z,27.35
2019-03-31T10:31:40.168Z,26.33
2019-03-31T10:32:42.726Z,26.68
2019-03-31T10:33:45.190Z,27.86
2019-03-31T10:34:47.328Z,26.89
2019-03-31T10:35:49.710Z,28.41
2019-03-31T10:36:51.803Z,28.33
2019-03-31T10:37:54.058Z,28.97
2019-03-31T10:38:56.555Z,26.27
2019-03-31T10:39:58.656Z,26.48
2019-03-31T10:41:00.858Z,26.38
2019-03-31T10:42:04.454Z,26.10
2019-03-31T10:43:07.009Z,27.76
2019-03-31T10:44:08.960Z,27.56
2019-03-31T10:45:12.091Z,25.55
2019-03-31T10:46:14.085Z,24.64
2019-03-31T10:47:16.176Z,24.42
2019-03-31T10:48:20.763Z,24.75
2019-03-31T10:49:22.351Z,25.02
2019-03-31T10:50:24.681Z,25.51
2019-03-31T10:51:26.381Z,25.82
2019-03-31T10:52:28.643Z,25.61
2019-03-31T10:53:30.956Z,25.71
2019-03-31T10:54:32.919Z,25.97
2019-03-31T10:55:35.394Z,26.02
2019-03-31T10:56:37.789Z,25.71
2019-03-31T10:57:41.168Z,26.01
2019-03-31T10:58:43.252Z,26.36
2019-03-31T10:59:45.641Z,26.24
2019-03-31T11:00:47.978Z,25.90
2019-03-31T11:01:50.860Z,25.49
2019-03-31T11:02:53.037Z,25.42
2019-03-31T11:03:55.392Z,27.51
2019-03-31T11:04:57.962Z,25.60
2019-03-31T11:06:00.120Z,25.70
2019-03-31T11:07:03.667Z,25.58
2019-03-31T11:08:07.132Z,25.62
2019-03-31T11:09:10.384Z,29.33
2019-03-31T11:10:13.512Z,29.92
2019-03-31T11:11:16.036Z,26.82
2019-03-31T11:12:18.079Z,26.32
2019-03-31T11:13:19.922Z,26.07
2019-03-31T11:14:22.260Z,25.61
2019-03-31T11:15:24.048Z,25.85
2019-03-31T11:16:26.534Z,26.00
2019-03-31T11:17:28.746Z,27.40
2019-03-31T11:18:31.790Z,26.19
2019-03-31T11:19:33.618Z,25.95
2019-03-31T11:20:35.933Z,27.34
2019-03-31T11:21:40.521Z,26.01
2019-03-31T11:22:44.145Z,25.97
2019-03-31T11:23:46.215Z,25.94
2019-03-31T11:24:48.937Z,28.92
2019-03-31T11:25:51.176Z,28.64
2019-03-31T11:26:53.817Z,25.53
2019-03-31T11:27:55.743Z,26.48
2019-03-31T11:28:58.054Z,25.49
2019-03-31T11:30:00.389Z,25.03
2019-03-31T11:31:02.774Z,25.37
2019-03-31T11:32:05.162Z,25.49
2019-03-31T11:33:07.764Z,25.66
2019-03-31T11:34:11.155Z,25.80
2019-03-31T11:35:13.305Z,25.15
2019-03-31T11:36:15.418Z,25.76
2019-03-31T11:37:17.665Z,25.72
2019-03-31T11:38:19.941Z,27.54
2019-03-31T11:39:22.295Z,25.97
2019-03-31T11:40:25.105Z,27.72
2019-03-31T11:41:27.355Z,25.78
2019-03-31T11:42:29.467Z,26.19
2019-03-31T11:43:31.227Z,26.61
2019-03-31T11:44:33.412Z,25.14
2019-03-31T11:45:35.228Z,25.32
2019-03-31T11:46:37.375Z,24.54
2019-03-31T11:47:41.277Z,24.51
2019-03-31T11:48:43.499Z,24.86
2019-03-31T11:49:46.003Z,25.02
2019-03-31T11:50:48.094Z,27.76
2019-03-31T11:51:49.838Z,25.46
2019-03-31T11:52:53.236Z,26.79
2019-03-31T11:53:55.426Z,26.34
2019-03-31T11:54:57.761Z,29.15
2019-03-31T11:56:00.197Z,28.88
2019-03-31T11:57:02.876Z,28.13
2019-03-31T11:58:06.190Z,29.53
2019-03-31T11:59:08.278Z,29.73
2019-03-31T12:00:21.712Z,26.76
2019-03-31T12:01:24.470Z,29.57
2019-03-31T12:02:27.822Z,28.18
2019-03-31T12:03:31.197Z,27.03
2019-03-31T12:04:33.568Z,28.67
2019-03-31T12:05:35.850Z,24.93
2019-03-31T12:06:37.845Z,24.51
2019-03-31T12:07:47.111Z,24.10
2019-03-31T12:08:46.958Z,23.48
2019-03-31T12:09:48.949Z,23.01
2019-03-31T12:10:51.099Z,23.35
2019-03-31T12:11:53.303Z,23.21
2019-03-31T12:12:57.267Z,23.63
2019-03-31T12:13:59.494Z,23.98
2019-03-31T12:15:03.319Z,24.12
2019-03-31T12:16:05.312Z,23.85
2019-03-31T12:17:08.544Z,24.08
2019-03-31T12:18:10.552Z,23.99
2019-03-31T12:19:12.923Z,24.39
2019-03-31T12:20:15.465Z,24.54
2019-03-31T12:21:17.438Z,24.72
2019-03-31T12:22:20.104Z,24.52
2019-03-31T12:23:22.235Z,24.44
2019-03-31T12:24:23.939Z,24.60
2019-03-31T12:25:27.464Z,24.57
2019-03-31T12:26:29.626Z,24.60
2019-03-31T12:27:31.402Z,24.19
2019-03-31T12:28:33.451Z,24.46
2019-03-31T12:29:35.697Z,24.26
2019-03-31T12:30:38.203Z,24.02
2019-03-31T12:31:40.366Z,25.08
2019-03-31T12:32:42.562Z,24.65
2019-03-31T12:33:44.851Z,24.52
2019-03-31T12:34:47.091Z,24.54
2019-03-31T12:35:49.542Z,24.56
2019-03-31T12:36:51.236Z,24.49
2019-03-31T12:37:53.684Z,25.01
2019-03-31T12:38:56.921Z,24.84
2019-03-31T12:39:59.287Z,27.19
2019-03-31T12:41:02.828Z,25.02
2019-03-31T12:42:04.940Z,24.81
2019-03-31T12:43:06.802Z,24.80
2019-03-31T12:44:08.998Z,23.98
2019-03-31T12:45:11.100Z,23.79
2019-03-31T12:46:13.324Z,23.74
2019-03-31T12:47:15.826Z,23.87
2019-03-31T12:48:18.102Z,23.87
2019-03-31T12:49:20.276Z,24.28
2019-03-31T12:50:22.307Z,24.41
2019-03-31T12:51:27.557Z,24.36
2019-03-31T12:52:29.610Z,24.43
2019-03-31T12:53:31.848Z,24.95
2019-03-31T12:54:34.109Z,24.85
2019-03-31T12:55:36.676Z,24.88
2019-03-31T12:56:38.812Z,24.60
2019-03-31T12:57:40.716Z,24.81
2019-03-31T12:58:44.686Z,24.58
2019-03-31T12:59:47.011Z,24.56
2019-03-31T13:00:50.517Z,24.90
2019-03-31T13:01:52.700Z,24.92
2019-03-31T13:02:55.353Z,24.71
2019-03-31T13:03:57.422Z,24.51
2019-03-31T13:04:59.567Z,24.33
2019-03-31T13:06:01.806Z,24.35
2019-03-31T13:07:03.618Z,24.51
2019-03-31T13:08:05.889Z,24.60
2019-03-31T13:09:08.809Z,24.42
2019-03-31T13:10:11.315Z,24.21
2019-03-31T13:11:13.695Z,24.35
2019-03-31T13:12:15.932Z,24.71
2019-03-31T13:13:18.827Z,24.84
2019-03-31T13:14:22.025Z,24.43
2019-03-31T13:15:23.921Z,24.55
2019-03-31T13:16:26.072Z,24.12
2019-03-31T13:17:28.280Z,24.67
2019-03-31T13:18:31.005Z,24.96
2019-03-31T13:19:33.295Z,25.19
2019-03-31T13:20:35.951Z,24.54
2019-03-31T13:21:39.223Z,24.38
2019-03-31T13:22:41.683Z,24.34
2019-03-31T13:23:43.941Z,24.58
2019-03-31T13:24:46.381Z,24.37
2019-03-31T13:25:48.493Z,24.49
2019-03-31T13:26:50.665Z,24.02
2019-03-31T13:27:52.573Z,24.23